Time;durP1;ratioP1;P1;durP2;ratioP2;P2;SDS_P1;SDS_P2;PMS_P1;PMS_P2;Temp;Humidity;BMP_temperature;BMP_pressure;BME280_temperature;BME280_humidity;BME280_pressure;Samples;Min_cycle;Max_cycle;Signal;HPM_P1;HPM_P2
2022/04/13 04:03:24;;;;;;;13.80;7.83;;;3.90;99.90;;;;;;5833000;23;20279;-75
2022/04/13 04:05:54;;;;;;;10.30;7.93;;;3.80;99.90;;;;;;4878823;29;20247;-77
2022/04/13 04:08:23;;;;;;;13.40;7.80;;;3.70;99.90;;;;;;4879095;29;20286;-77
2022/04/13 04:10:51;;;;;;;12.80;7.63;;;3.70;99.90;;;;;;4891655;29;20273;-75
2022/04/13 04:13:19;;;;;;;11.70;7.97;;;3.70;99.90;;;;;;4899736;29;20216;-79
2022/04/13 04:15:48;;;;;;;11.03;7.70;;;3.60;99.90;;;;;;4899709;29;20237;-80
2022/04/13 04:18:16;;;;;;;13.73;8.60;;;3.60;99.90;;;;;;4899391;29;20760;-76
2022/04/13 04:20:48;;;;;;;12.03;8.90;;;3.60;99.90;;;;;;4899840;29;20450;-79
2022/04/13 04:23:16;;;;;;;12.40;8.33;;;3.60;99.90;;;;;;4884369;29;20671;-79
2022/04/13 04:25:44;;;;;;;11.23;8.50;;;3.60;99.90;;;;;;4879564;29;20273;-78
2022/04/13 04:28:12;;;;;;;13.13;7.80;;;3.50;99.90;;;;;;4879669;29;20351;-80
2022/04/13 04:30:41;;;;;;;11.67;7.67;;;3.60;99.90;;;;;;4879796;29;20493;-78
2022/04/13 04:33:12;;;;;;;13.40;8.13;;;3.50;99.90;;;;;;4885622;29;20218;-77
2022/04/13 04:35:41;;;;;;;16.83;8.47;;;3.50;99.90;;;;;;4888960;29;20202;-78
2022/04/13 04:38:10;;;;;;;15.53;8.93;;;3.50;99.90;;;;;;4879944;29;20505;-77
2022/04/13 04:40:40;;;;;;;14.90;8.30;;;3.50;99.90;;;;;;4879673;29;20577;-78
2022/04/13 04:43:11;;;;;;;12.90;7.67;;;3.50;99.90;;;;;;4879514;29;20493;-79
2022/04/13 04:45:39;;;;;;;12.93;8.23;;;3.60;99.90;;;;;;4879548;29;20214;-76
2022/04/13 04:48:07;;;;;;;17.27;8.00;;;3.60;99.90;;;;;;4879410;29;20254;-78
2022/04/13 04:50:36;;;;;;;13.20;8.97;;;3.60;99.90;;;;;;4878828;29;20238;-74
2022/04/13 04:53:04;;;;;;;13.93;8.73;;;3.70;99.90;;;;;;4878941;29;20642;-76
2022/04/13 04:55:34;;;;;;;16.13;8.37;;;3.70;99.90;;;;;;4879140;29;20773;-77
2022/04/13 04:58:03;;;;;;;14.77;9.20;;;3.70;99.90;;;;;;4883559;29;20289;-77
2022/04/13 05:00:35;;;;;;;14.50;9.10;;;3.80;99.90;;;;;;4889011;29;20311;-77
2022/04/13 05:03:03;;;;;;;15.93;8.60;;;3.80;99.90;;;;;;4887193;29;20281;-77
2022/04/13 05:05:32;;;;;;;19.20;8.83;;;3.90;99.90;;;;;;4887092;29;20222;-76
2022/04/13 05:08:01;;;;;;;15.50;9.13;;;3.90;99.90;;;;;;4887088;29;20204;-78
2022/04/13 05:10:29;;;;;;;11.17;8.07;;;4.00;99.90;;;;;;4887792;29;20202;-78
2022/04/13 05:12:58;;;;;;;13.53;8.30;;;4.10;99.90;;;;;;4891849;29;20244;-79
2022/04/13 05:15:27;;;;;;;15.03;8.23;;;4.20;99.90;;;;;;4885878;29;20253;-77
2022/04/13 05:17:56;;;;;;;11.53;7.67;;;4.30;99.90;;;;;;4888118;29;20256;-74
2022/04/13 05:20:24;;;;;;;12.20;7.57;;;4.30;99.90;;;;;;4869681;29;20275;-79
2022/04/13 05:22:52;;;;;;;11.13;7.70;;;4.40;99.90;;;;;;4870204;29;20242;-78
2022/04/13 05:25:20;;;;;;;13.97;7.53;;;4.50;99.90;;;;;;4879689;29;20250;-77
2022/04/13 05:27:49;;;;;;;11.47;8.43;;;4.60;99.90;;;;;;4879715;29;20696;-76
2022/04/13 05:30:18;;;;;;;13.90;9.40;;;4.70;99.90;;;;;;4880599;29;20621;-75
2022/04/13 05:32:53;;;;;;;16.33;9.07;;;4.90;99.90;;;;;;4879882;29;20226;-77
2022/04/13 05:35:21;;;;;;;14.70;9.40;;;5.00;99.90;;;;;;4879094;29;20194;-77
2022/04/13 05:37:49;;;;;;;16.23;9.60;;;5.20;99.90;;;;;;4879074;29;20305;-77
2022/04/13 05:40:17;;;;;;;14.90;9.53;;;5.40;99.90;;;;;;4878992;29;20317;-77
2022/04/13 05:42:45;;;;;;;13.73;8.93;;;5.50;99.90;;;;;;4879250;29;20253;-74
2022/04/13 05:45:14;;;;;;;13.93;8.10;;;5.60;99.90;;;;;;4879006;29;20308;-76
2022/04/13 05:47:44;;;;;;;12.83;7.90;;;5.80;99.90;;;;;;4878485;29;20218;-74
2022/04/13 05:50:14;;;;;;;11.33;7.77;;;6.00;99.90;;;;;;4878128;29;20268;-74
2022/04/13 05:52:44;;;;;;;11.57;7.43;;;6.10;99.90;;;;;;4879504;29;20620;-74
2022/04/13 05:55:12;;;;;;;11.10;7.90;;;6.40;99.90;;;;;;4879586;29;20198;-75
2022/04/13 05:57:41;;;;;;;16.03;8.03;;;6.50;99.90;;;;;;4864564;29;20253;-73
2022/04/13 06:00:12;;;;;;;15.53;8.43;;;6.60;99.90;;;;;;4862463;29;20274;-74
2022/04/13 06:02:41;;;;;;;10.70;7.50;;;6.80;99.90;;;;;;4862662;29;20223;-77
2022/04/13 06:05:12;;;;;;;13.17;8.03;;;7.00;99.90;;;;;;4859823;29;20659;-76
2022/04/13 06:07:41;;;;;;;18.63;7.87;;;7.20;99.90;;;;;;4859970;29;20689;-77
2022/04/13 06:10:11;;;;;;;13.93;9.07;;;7.40;99.90;;;;;;4859579;29;20696;-76
2022/04/13 06:12:41;;;;;;;12.47;8.10;;;7.80;99.90;;;;;;4859720;29;20215;-77
2022/04/13 06:15:10;;;;;;;10.87;7.50;;;8.30;99.90;;;;;;4860988;29;20246;-75
2022/04/13 06:17:38;;;;;;;14.90;6.97;;;9.10;99.90;;;;;;4859850;29;20223;-77
2022/04/13 06:20:08;;;;;;;17.33;7.30;;;9.60;99.90;;;;;;4859659;29;20238;-75
2022/04/13 06:22:41;;;;;;;13.73;6.53;;;9.90;99.90;;;;;;4859629;29;20215;-76
2022/04/13 06:25:12;;;;;;;11.93;7.40;;;10.30;99.90;;;;;;4860198;29;20207;-76
2022/04/13 06:27:40;;;;;;;12.13;7.10;;;10.60;99.90;;;;;;4859447;29;20664;-75
2022/04/13 06:30:10;;;;;;;12.50;6.93;;;10.40;99.90;;;;;;4862551;29;20322;-78
2022/04/13 06:32:40;;;;;;;9.60;7.03;;;10.60;99.90;;;;;;4865963;29;20321;-76
2022/04/13 06:35:11;;;;;;;10.23;6.50;;;11.10;99.90;;;;;;4866215;29;20242;-76
2022/04/13 06:37:42;;;;;;;9.10;6.10;;;11.10;99.90;;;;;;4869279;29;20546;-76
2022/04/13 06:40:11;;;;;;;10.10;6.40;;;11.30;99.90;;;;;;4863505;29;20231;-76
2022/04/13 06:42:41;;;;;;;9.90;5.97;;;10.90;99.90;;;;;;4864086;29;20218;-76
2022/04/13 06:45:11;;;;;;;7.67;6.00;;;11.30;99.90;;;;;;4863614;29;20272;-76
2022/04/13 06:47:40;;;;;;;8.57;5.83;;;11.80;99.90;;;;;;4863366;29;20231;-76
2022/04/13 06:50:10;;;;;;;7.73;6.00;;;12.30;99.90;;;;;;4862902;29;20261;-74
2022/04/13 06:52:42;;;;;;;8.93;5.80;;;12.40;99.90;;;;;;4865792;29;20211;-73
2022/04/13 06:55:11;;;;;;;9.60;6.03;;;12.60;99.90;;;;;;4875257;29;20214;-74
2022/04/13 06:57:40;;;;;;;8.80;6.43;;;13.60;99.90;;;;;;4872949;29;20206;-76
2022/04/13 07:00:11;;;;;;;9.10;5.93;;;14.10;99.90;;;;;;4871174;29;20282;-73
2022/04/13 07:02:41;;;;;;;7.80;5.43;;;14.80;99.50;;;;;;4873183;29;20233;-75
2022/04/13 07:05:30;;;;;;;8.93;5.47;;;15.40;99.00;;;;;;4859793;29;20269;-76
2022/04/13 07:08:00;;;;;;;8.47;5.47;;;15.60;98.60;;;;;;4861780;29;20230;-77
2022/04/13 07:10:30;;;;;;;9.00;5.57;;;16.10;96.90;;;;;;4864237;29;20234;-75
2022/04/13 07:12:58;;;;;;;6.43;5.00;;;16.20;96.00;;;;;;4846952;29;20220;-76
2022/04/13 07:15:27;;;;;;;7.43;5.90;;;16.00;96.50;;;;;;4844232;29;20248;-75
2022/04/13 07:17:57;;;;;;;7.00;5.83;;;15.80;96.10;;;;;;4853335;29;20211;-75
2022/04/13 07:20:25;;;;;;;7.40;5.20;;;15.30;97.40;;;;;;4862372;29;20262;-76
2022/04/13 07:22:54;;;;;;;7.90;5.13;;;15.60;97.30;;;;;;4863446;29;20258;-75
2022/04/13 07:25:24;;;;;;;7.47;5.33;;;16.10;96.80;;;;;;4864240;29;20271;-75
2022/04/13 07:27:53;;;;;;;7.60;5.40;;;16.40;96.30;;;;;;4864082;29;20271;-75
2022/04/13 07:30:21;;;;;;;6.60;5.33;;;16.40;95.90;;;;;;4862894;29;20211;-76
2022/04/13 07:32:54;;;;;;;7.80;5.77;;;16.00;97.30;;;;;;4862895;29;20563;-76
2022/04/13 07:35:23;;;;;;;7.40;5.50;;;16.20;96.90;;;;;;4864058;29;20569;-75
2022/04/13 07:37:51;;;;;;;9.03;5.77;;;16.60;97.50;;;;;;4859887;29;20216;-76
2022/04/13 07:40:19;;;;;;;6.97;4.87;;;17.40;95.60;;;;;;4863160;29;20243;-76
2022/04/13 07:42:49;;;;;;;7.97;5.30;;;17.40;94.80;;;;;;4851430;29;20667;-72
2022/04/13 07:45:17;;;;;;;6.87;5.10;;;17.70;95.20;;;;;;4843702;29;20212;-77
2022/04/13 07:47:45;;;;;;;6.50;4.77;;;18.00;94.20;;;;;;4845505;29;20247;-75
2022/04/13 07:50:13;;;;;;;10.67;4.67;;;18.30;93.40;;;;;;4863147;29;20602;-75
2022/04/13 07:52:42;;;;;;;8.57;4.90;;;18.00;93.00;;;;;;4863028;29;20211;-73
2022/04/13 07:55:11;;;;;;;6.67;4.80;;;17.70;93.70;;;;;;4843803;29;20207;-76
2022/04/13 07:57:42;;;;;;;6.20;4.63;;;17.50;92.90;;;;;;4848341;29;20239;-74
2022/04/13 08:00:12;;;;;;;11.40;4.60;;;17.30;94.20;;;;;;4850429;29;20235;-73
2022/04/13 08:02:41;;;;;;;7.37;4.40;;;18.30;93.30;;;;;;4863239;29;20211;-76
2022/04/13 08:05:12;;;;;;;7.43;5.00;;;19.00;91.70;;;;;;4862430;29;20247;-73
2022/04/13 08:07:41;;;;;;;6.67;4.47;;;19.60;91.70;;;;;;4862465;29;20246;-72
2022/04/13 08:10:12;;;;;;;7.87;4.03;;;20.00;90.00;;;;;;4867088;29;20238;-72
2022/04/13 08:12:41;;;;;;;4.87;3.80;;;20.50;88.00;;;;;;4864856;29;20658;-75
2022/04/13 08:15:12;;;;;;;6.17;4.50;;;20.70;85.60;;;;;;4863874;29;20234;-75
2022/04/13 08:17:41;;;;;;;6.17;3.80;;;19.60;86.40;;;;;;4863581;29;20238;-74
2022/04/13 08:20:13;;;;;;;7.37;4.53;;;20.00;89.30;;;;;;4864359;29;20263;-76
2022/04/13 08:22:44;;;;;;;9.57;4.70;;;19.90;87.40;;;;;;4873275;29;20226;-76
2022/04/13 08:25:12;;;;;;;7.33;3.93;;;19.50;87.80;;;;;;4866777;29;20207;-76
2022/04/13 08:27:43;;;;;;;7.53;5.00;;;19.10;87.90;;;;;;4870376;29;20286;-76
2022/04/13 08:30:14;;;;;;;7.20;4.20;;;19.70;88.40;;;;;;4864569;29;20233;-74
2022/04/13 08:32:43;;;;;;;9.13;4.00;;;20.60;86.30;;;;;;4874591;29;20207;-73
2022/04/13 08:35:11;;;;;;;7.23;4.33;;;21.00;82.80;;;;;;4866613;29;20305;-75
2022/04/13 08:37:40;;;;;;;5.63;3.97;;;21.20;83.40;;;;;;4870371;29;20215;-73
2022/04/13 08:40:11;;;;;;;6.43;4.30;;;20.90;83.50;;;;;;4866134;29;20278;-74
2022/04/13 08:42:47;;;;;;;7.80;3.87;;;20.10;84.30;;;;;;4870111;29;20233;-76
2022/04/13 08:45:22;;;;;;;8.57;4.40;;;20.80;83.40;;;;;;4869120;29;20267;-74
2022/04/13 08:47:56;;;;;;;6.87;4.37;;;21.80;82.50;;;;;;4880225;29;20202;-74
2022/04/13 08:50:27;;;;;;;5.60;4.03;;;22.30;80.00;;;;;;4861615;29;20546;-77
2022/04/13 08:52:59;;;;;;;7.10;4.10;;;22.50;78.50;;;;;;4860573;29;20271;-75
2022/04/13 08:55:29;;;;;;;5.57;4.00;;;22.30;76.80;;;;;;4861040;29;20589;-75
2022/04/13 08:58:06;;;;;;;6.77;4.27;;;22.10;79.20;;;;;;4860095;29;20314;-77
2022/04/13 09:00:38;;;;;;;6.73;4.80;;;22.70;77.30;;;;;;4861009;29;20226;-76
2022/04/13 09:03:20;;;;;;;7.37;4.20;;;22.00;78.40;;;;;;4856232;29;20257;-75
2022/04/13 09:05:51;;;;;;;7.57;4.57;;;22.20;78.20;;;;;;4848279;29;20661;-73
2022/04/13 09:08:21;;;;;;;5.90;3.92;;;21.90;78.90;;;;;;4841477;29;20260;-75
2022/04/13 09:10:51;;;;;;;6.70;4.50;;;22.10;78.60;;;;;;4840818;29;20590;-76
2022/04/13 09:13:21;;;;;;;5.50;4.60;;;21.60;78.70;;;;;;4852841;29;20266;-74
2022/04/13 09:15:53;;;;;;;5.50;4.07;;;21.00;79.60;;;;;;4860424;29;20321;-73
2022/04/13 09:18:21;;;;;;;7.00;4.37;;;21.20;80.50;;;;;;4860389;29;20191;-74
2022/04/13 09:20:50;;;;;;;6.20;4.40;;;20.60;80.50;;;;;;4861709;29;20246;-75
2022/04/13 09:23:20;;;;;;;5.70;4.30;;;21.30;81.30;;;;;;4860314;29;20235;-74
2022/04/13 09:25:51;;;;;;;6.83;4.20;;;21.50;80.40;;;;;;4859851;29;20286;-76
2022/04/13 09:28:19;;;;;;;6.17;4.00;;;22.40;78.60;;;;;;4859771;29;20250;-74
2022/04/13 09:30:47;;;;;;;6.72;4.10;;;23.80;75.80;;;;;;4859731;29;20271;-76
2022/04/13 09:33:17;;;;;;;8.30;4.28;;;23.80;75.20;;;;;;4859799;29;20206;-77
2022/04/13 09:35:45;;;;;;;7.05;3.83;;;23.90;72.50;;;;;;4859809;29;20254;-78
2022/04/13 09:38:13;;;;;;;6.40;3.75;;;24.50;73.10;;;;;;4859688;29;20254;-77
2022/04/13 09:40:43;;;;;;;7.10;4.75;;;24.80;72.10;;;;;;4859541;29;20226;-77
2022/04/13 09:43:17;;;;;;;6.80;3.80;;;24.90;70.20;;;;;;4859786;29;20218;-76
2022/04/13 09:45:46;;;;;;;4.90;3.88;;;24.40;70.00;;;;;;4860549;29;20267;-76
2022/04/13 09:48:17;;;;;;;9.35;4.30;;;25.50;71.10;;;;;;4860709;29;20238;-77
2022/04/13 09:50:47;;;;;;;6.22;3.80;;;24.50;68.60;;;;;;4859465;29;20246;-77
2022/04/13 09:53:17;;;;;;;6.40;4.47;;;25.00;71.10;;;;;;4859587;29;20302;-76
2022/04/13 09:55:46;;;;;;;5.10;4.10;;;24.40;70.90;;;;;;4859319;29;20282;-78
2022/04/13 09:58:16;;;;;;;5.32;3.42;;;25.00;68.50;;;;;;4859357;29;20261;-75
2022/04/13 10:00:47;;;;;;;8.73;4.20;;;25.30;70.60;;;;;;4859203;29;20210;-76
2022/04/13 10:03:18;;;;;;;10.55;3.92;;;25.00;68.10;;;;;;4858674;29;20287;-78
2022/04/13 10:05:49;;;;;;;7.30;4.60;;;24.60;71.20;;;;;;4859459;29;20219;-75
2022/04/13 10:08:22;;;;;;;8.65;4.35;;;24.20;70.30;;;;;;4860244;29;20199;-74
2022/04/13 10:10:51;;;;;;;4.63;4.00;;;24.80;70.10;;;;;;4859921;29;20235;-73
2022/04/13 10:13:34;;;;;;;7.72;3.85;;;25.50;65.00;;;;;;4859861;29;20246;-76
2022/04/13 10:16:04;;;;;;;7.15;4.47;;;25.50;66.60;;;;;;4859763;29;20214;-77
2022/04/13 10:18:56;;;;;;;5.72;4.18;;;25.20;68.60;;;;;;4846201;29;20268;-74
2022/04/13 10:21:50;;;;;;;7.43;4.55;;;24.70;70.80;;;;;;4841345;29;20200;-76
2022/04/13 10:24:26;;;;;;;5.00;4.20;;;24.50;69.10;;;;;;4831976;29;20231;-75
2022/04/13 10:27:01;;;;;;;6.00;4.18;;;24.30;69.40;;;;;;4841097;29;20232;-77
2022/04/13 10:29:30;;;;;;;6.40;4.93;;;24.40;70.00;;;;;;4840517;29;20670;-74
2022/04/13 10:32:06;;;;;;;8.55;4.97;;;23.80;69.90;;;;;;4841070;29;20254;-79
2022/04/13 10:34:41;;;;;;;6.07;4.07;;;23.40;71.10;;;;;;4840819;29;20629;-76
2022/04/13 10:37:10;;;;;;;6.67;4.50;;;23.10;72.60;;;;;;4841243;29;20257;-74
2022/04/13 10:39:40;;;;;;;6.23;4.37;;;22.50;72.80;;;;;;4840578;29;20243;-77
2022/04/13 10:42:11;;;;;;;5.63;4.03;;;22.80;72.80;;;;;;4840892;29;20251;-76
2022/04/13 10:44:42;;;;;;;5.20;3.93;;;22.80;75.10;;;;;;4841274;29;20268;-77
2022/04/13 10:47:18;;;;;;;5.70;3.70;;;23.20;71.30;;;;;;4840945;29;20331;-74
2022/04/13 10:49:55;;;;;;;5.80;3.60;;;23.30;72.70;;;;;;4850407;29;20239;-75
2022/04/13 10:52:28;;;;;;;5.90;3.97;;;22.90;72.40;;;;;;4858900;29;20195;-77
2022/04/13 10:55:02;;;;;;;5.70;4.37;;;23.10;71.00;;;;;;4859287;29;20242;-77
2022/04/13 10:57:36;;;;;;;6.07;4.27;;;23.40;72.50;;;;;;4859468;29;20303;-75
2022/04/13 11:00:06;;;;;;;6.87;4.43;;;23.20;70.90;;;;;;4858791;29;20199;-73
2022/04/13 11:02:42;;;;;;;6.03;4.53;;;23.40;71.90;;;;;;4858792;29;20622;-75
2022/04/13 11:05:13;;;;;;;7.33;4.17;;;24.00;70.60;;;;;;4858571;29;20246;-75
2022/04/13 11:07:43;;;;;;;5.43;4.23;;;24.70;71.50;;;;;;4859273;29;20649;-76
2022/04/13 11:10:17;;;;;;;5.90;4.00;;;24.90;72.30;;;;;;4858559;29;20690;-77
2022/04/13 11:12:46;;;;;;;4.75;4.10;;;25.10;68.60;;;;;;4852060;29;20688;-78
2022/04/13 11:15:19;;;;;;;5.97;4.10;;;25.00;70.70;;;;;;4845144;29;20218;-77
2022/04/13 11:17:47;;;;;;;4.93;4.10;;;24.60;71.80;;;;;;4880628;29;20221;-77
2022/04/13 11:20:21;;;;;;;5.83;3.57;;;24.00;68.90;;;;;;4880629;29;20253;-74
2022/04/13 11:23:14;;;;;;;4.70;4.10;;;24.40;72.80;;;;;;4877564;29;20225;-74
2022/04/13 11:25:47;;;;;;;4.87;3.63;;;23.80;71.60;;;;;;4880825;29;20211;-75
2022/04/13 11:28:26;;;;;;;5.43;4.17;;;24.00;73.90;;;;;;4880877;29;20639;-72
2022/04/13 11:31:02;;;;;;;8.03;4.30;;;24.40;73.30;;;;;;4881155;29;20261;-73
2022/04/13 11:34:00;;;;;;;7.00;4.07;;;24.50;71.60;;;;;;4880809;29;20258;-77
2022/04/13 11:36:51;;;;;;;6.47;4.67;;;24.40;70.10;;;;;;4822941;29;20243;-74
2022/04/13 11:39:44;;;;;;;6.87;4.20;;;24.20;74.40;;;;;;4875234;29;20214;-76
2022/04/13 11:42:34;;;;;;;6.67;3.93;;;24.30;74.20;;;;;;4881734;29;20210;-74
2022/04/13 11:45:04;;;;;;;7.53;4.23;;;24.20;71.10;;;;;;4882813;29;20246;-75
2022/04/13 11:47:39;;;;;;;5.87;4.10;;;24.30;71.30;;;;;;4879428;29;20223;-77
2022/04/13 11:50:21;;;;;;;6.90;5.00;;;24.30;71.50;;;;;;4864687;29;20231;-76
2022/04/13 11:52:52;;;;;;;4.60;3.97;;;23.90;71.50;;;;;;4872408;29;20199;-76
2022/04/13 11:55:21;;;;;;;6.00;4.13;;;23.60;75.60;;;;;;4866724;29;20294;-76
2022/04/13 11:58:19;;;;;;;6.60;4.40;;;23.80;73.50;;;;;;4871086;29;20245;-76
2022/04/13 12:00:55;;;;;;;7.73;4.93;;;23.80;71.80;;;;;;4863963;29;20621;-75
2022/04/13 12:03:26;;;;;;;5.87;4.37;;;23.90;76.00;;;;;;4870014;29;20230;-73
2022/04/13 12:05:59;;;;;;;5.13;4.17;;;24.10;76.40;;;;;;4864632;29;20282;-75
2022/04/13 12:08:31;;;;;;;6.07;4.60;;;24.20;73.20;;;;;;4862499;29;20677;-76
2022/04/13 12:11:01;;;;;;;6.27;5.00;;;23.80;75.30;;;;;;4861819;29;20207;-75
2022/04/13 12:13:33;;;;;;;5.73;3.90;;;23.70;75.40;;;;;;4869254;29;20199;-74
2022/04/13 12:16:03;;;;;;;6.00;4.17;;;23.60;74.90;;;;;;4865668;29;20323;-76
2022/04/13 12:18:33;;;;;;;5.97;4.40;;;23.40;75.20;;;;;;4862512;29;20250;-74
2022/04/13 12:21:10;;;;;;;5.53;4.27;;;23.10;75.40;;;;;;4843569;29;20442;-73
2022/04/13 12:23:41;;;;;;;6.20;4.80;;;23.20;75.50;;;;;;4845354;29;20362;-78
2022/04/13 12:26:10;;;;;;;5.90;4.30;;;23.20;75.00;;;;;;4843199;29;20223;-74
2022/04/13 12:28:39;;;;;;;6.47;4.07;;;23.00;76.80;;;;;;4844812;29;20280;-75
2022/04/13 12:31:08;;;;;;;7.50;4.20;;;23.10;77.20;;;;;;4844761;29;20645;-74
2022/04/13 12:33:38;;;;;;;6.23;3.80;;;23.10;77.90;;;;;;4843519;29;20268;-76
2022/04/13 12:36:08;;;;;;;5.93;3.70;;;23.10;78.00;;;;;;4843378;29;20298;-72
2022/04/13 12:38:37;;;;;;;6.23;4.60;;;22.90;76.00;;;;;;4843087;29;20306;-76
2022/04/13 12:41:15;;;;;;;6.57;4.00;;;22.30;75.90;;;;;;4843067;29;20258;-75
2022/04/13 12:43:45;;;;;;;7.73;4.50;;;22.20;78.60;;;;;;4843325;29;20263;-76
2022/04/13 12:46:15;;;;;;;7.93;4.37;;;22.10;76.70;;;;;;4846874;29;20253;-73
2022/04/13 12:48:46;;;;;;;5.90;3.90;;;21.90;79.50;;;;;;4863314;29;20226;-76
2022/04/13 12:51:16;;;;;;;7.23;4.23;;;22.10;81.40;;;;;;4862007;29;20219;-76
2022/04/13 12:54:00;;;;;;;6.23;4.23;;;21.80;78.30;;;;;;4861237;29;20724;-77
2022/04/13 12:56:31;;;;;;;5.90;4.30;;;21.70;79.40;;;;;;4862359;29;20195;-76
2022/04/13 12:59:00;;;;;;;6.33;4.00;;;22.20;82.10;;;;;;4861614;29;20203;-77
2022/04/13 13:01:32;;;;;;;7.33;4.53;;;22.50;80.80;;;;;;4862075;29;20248;-76
2022/04/13 13:04:12;;;;;;;4.93;4.30;;;22.90;78.20;;;;;;4860518;29;20777;-77
2022/04/13 13:06:54;;;;;;;7.03;4.17;;;23.00;77.90;;;;;;4861183;29;20293;-76
2022/04/13 13:09:24;;;;;;;9.10;5.00;;;23.20;75.90;;;;;;4861030;29;20214;-76
2022/04/13 13:11:59;;;;;;;7.97;4.80;;;22.70;77.50;;;;;;4860561;29;20250;-77
2022/04/13 13:14:35;;;;;;;7.00;5.20;;;22.80;78.00;;;;;;4854348;29;20281;-74
2022/04/13 13:17:16;;;;;;;5.90;3.90;;;23.20;77.10;;;;;;4857163;29;20211;-77
2022/04/13 13:19:47;;;;;;;9.67;5.00;;;23.30;77.70;;;;;;4861287;29;20265;-73
2022/04/13 13:22:17;;;;;;;8.27;4.97;;;23.50;75.90;;;;;;4861119;29;20326;-76
2022/04/13 13:24:53;;;;;;;6.87;5.00;;;23.50;75.50;;;;;;4869687;29;20772;-73
2022/04/13 13:27:24;;;;;;;7.03;5.20;;;23.30;76.10;;;;;;4860921;29;20241;-75
2022/04/13 13:29:53;;;;;;;6.97;4.53;;;23.40;75.80;;;;;;4860709;29;20430;-76
2022/04/13 13:32:23;;;;;;;9.67;4.73;;;23.20;77.60;;;;;;4867093;29;20614;-76
2022/04/13 13:34:59;;;;;;;8.10;5.30;;;23.20;76.00;;;;;;4879040;29;20292;-77
2022/04/13 13:37:48;;;;;;;6.97;4.60;;;23.20;76.60;;;;;;4879136;29;20594;-77
2022/04/13 13:40:41;;;;;;;7.60;4.67;;;23.30;77.70;;;;;;4874569;29;20214;-76
2022/04/13 13:43:35;;;;;;;7.90;5.20;;;23.40;77.60;;;;;;4878317;29;20250;-78
2022/04/13 13:46:18;;;;;;;9.27;5.10;;;23.40;77.80;;;;;;4864803;29;20279;-76
2022/04/13 13:48:49;;;;;;;8.33;5.10;;;23.60;79.20;;;;;;4859285;29;20550;-77
2022/04/13 13:51:17;;;;;;;7.37;5.60;;;23.60;78.00;;;;;;4860222;29;20226;-77
2022/04/13 13:53:49;;;;;;;7.67;5.27;;;23.50;77.60;;;;;;4860373;29;20218;-77
2022/04/13 13:56:19;;;;;;;8.10;5.00;;;23.40;77.80;;;;;;4860133;29;20206;-77
2022/04/13 13:58:48;;;;;;;7.60;5.50;;;23.20;78.90;;;;;;4859919;29;20221;-76
2022/04/13 14:01:16;;;;;;;10.80;5.50;;;23.20;77.90;;;;;;4859809;29;20306;-76
2022/04/13 14:03:45;;;;;;;7.90;6.13;;;23.20;77.80;;;;;;4859760;29;20237;-75
2022/04/13 14:06:14;;;;;;;8.27;5.10;;;23.20;78.90;;;;;;4859614;29;20227;-77
2022/04/13 14:08:42;;;;;;;8.83;5.03;;;23.30;79.30;;;;;;4859819;29;20750;-77
2022/04/13 14:11:10;;;;;;;8.33;5.23;;;23.40;77.40;;;;;;4859975;29;20249;-76
2022/04/13 14:13:38;;;;;;;8.83;5.80;;;23.40;78.90;;;;;;4861467;29;20262;-76
2022/04/13 14:16:08;;;;;;;10.57;6.40;;;23.30;77.50;;;;;;4860519;29;20221;-77
2022/04/13 14:18:37;;;;;;;6.70;5.37;;;23.20;77.60;;;;;;4859516;29;20223;-76
2022/04/13 14:21:05;;;;;;;10.10;4.97;;;23.10;78.20;;;;;;4859777;29;20729;-76
2022/04/13 14:23:33;;;;;;;10.47;5.40;;;23.00;77.10;;;;;;4859964;29;20214;-77
2022/04/13 14:26:01;;;;;;;8.53;5.20;;;22.90;78.60;;;;;;4859637;29;20652;-77
2022/04/13 14:28:29;;;;;;;8.23;5.50;;;22.80;77.10;;;;;;4860055;29;20211;-77
2022/04/13 14:30:58;;;;;;;7.27;4.53;;;23.00;78.80;;;;;;4859457;29;20254;-74
2022/04/13 14:33:27;;;;;;;8.40;5.47;;;23.00;79.20;;;;;;4859955;29;20242;-76
2022/04/13 14:35:55;;;;;;;12.20;5.30;;;23.00;77.10;;;;;;4859858;29;20310;-76
2022/04/13 14:38:23;;;;;;;8.63;4.77;;;23.00;76.40;;;;;;4859848;29;20313;-74
2022/04/13 14:40:51;;;;;;;10.13;4.70;;;23.00;77.30;;;;;;4859554;29;20712;-79
2022/04/13 14:43:20;;;;;;;8.60;4.60;;;22.80;77.30;;;;;;4859462;29;20211;-77
2022/04/13 14:45:50;;;;;;;7.70;4.57;;;22.70;76.70;;;;;;4859552;29;20330;-77
2022/04/13 14:48:18;;;;;;;6.27;4.80;;;22.70;77.50;;;;;;4859260;29;20234;-77
2022/04/13 14:50:47;;;;;;;7.47;4.60;;;22.60;78.40;;;;;;4861981;29;20211;-77
2022/04/13 14:53:16;;;;;;;7.13;4.57;;;22.50;77.50;;;;;;4863266;29;20250;-74
2022/04/13 14:55:45;;;;;;;7.60;4.87;;;22.50;79.70;;;;;;4863306;29;20243;-74
2022/04/13 14:58:14;;;;;;;7.97;4.57;;;22.40;79.10;;;;;;4862700;29;20229;-73
2022/04/13 15:00:42;;;;;;;7.40;5.00;;;22.40;80.90;;;;;;4863815;29;20709;-73
2022/04/13 15:03:11;;;;;;;8.93;4.80;;;22.40;79.60;;;;;;4864752;29;20214;-75
2022/04/13 15:05:38;;;;;;;8.50;4.70;;;22.30;79.30;;;;;;4862965;29;20362;-76
2022/04/13 15:08:09;;;;;;;9.87;4.77;;;22.30;79.70;;;;;;4863032;29;20223;-77
2022/04/13 15:10:37;;;;;;;7.17;4.80;;;22.20;77.50;;;;;;4869140;29;20199;-76
2022/04/13 15:13:05;;;;;;;10.50;4.83;;;22.20;78.10;;;;;;4863030;29;20218;-76
2022/04/13 15:15:34;;;;;;;6.83;5.10;;;22.10;80.00;;;;;;4862721;29;20294;-76
2022/04/13 15:18:02;;;;;;;7.63;4.73;;;22.10;79.90;;;;;;4862742;29;20214;-75
2022/04/13 15:20:31;;;;;;;6.70;4.17;;;22.10;80.20;;;;;;4862757;29;20238;-73
2022/04/13 15:22:59;;;;;;;7.27;4.60;;;21.90;79.10;;;;;;4862489;29;20261;-77
2022/04/13 15:25:29;;;;;;;6.97;4.80;;;21.80;81.10;;;;;;4862777;29;20259;-76
2022/04/13 15:27:58;;;;;;;9.37;4.70;;;21.80;80.60;;;;;;4862415;29;20365;-76
2022/04/13 15:30:28;;;;;;;10.13;5.50;;;21.70;80.40;;;;;;4862141;29;20223;-77
2022/04/13 15:32:56;;;;;;;10.03;4.93;;;21.70;80.80;;;;;;4862179;29;20628;-75
2022/04/13 15:35:25;;;;;;;8.50;5.57;;;21.70;82.20;;;;;;4862256;29;20234;-77
2022/04/13 15:37:53;;;;;;;6.97;5.00;;;21.80;81.40;;;;;;4862204;29;20559;-76
2022/04/13 15:40:21;;;;;;;8.53;5.97;;;21.80;81.40;;;;;;4862363;29;20267;-76
2022/04/13 15:42:50;;;;;;;8.13;5.50;;;21.70;80.50;;;;;;4861825;29;20221;-76
2022/04/13 15:45:19;;;;;;;9.20;5.37;;;21.60;81.90;;;;;;4861944;29;20321;-76
2022/04/13 15:47:48;;;;;;;8.23;5.43;;;21.50;79.80;;;;;;4861774;29;20287;-76
2022/04/13 15:50:17;;;;;;;12.67;6.50;;;21.40;79.40;;;;;;4861804;29;20618;-76
2022/04/13 15:52:45;;;;;;;8.37;5.33;;;21.20;79.50;;;;;;4861858;29;20231;-75
2022/04/13 15:55:15;;;;;;;8.03;5.57;;;21.20;80.80;;;;;;4861975;29;20238;-76
2022/04/13 15:57:47;;;;;;;8.53;5.47;;;21.20;80.90;;;;;;4861797;29;20219;-76
2022/04/13 16:00:37;;;;;;;8.43;5.53;;;21.20;82.50;;;;;;4861202;29;20203;-75
2022/04/13 16:03:07;;;;;;;11.87;5.63;;;21.10;80.90;;;;;;4860236;29;20224;-74
2022/04/13 16:05:37;;;;;;;9.13;5.70;;;20.90;81.80;;;;;;4860903;29;20235;-75
2022/04/13 16:08:08;;;;;;;8.43;5.87;;;20.60;82.00;;;;;;4861016;29;20226;-74
2022/04/13 16:10:36;;;;;;;11.13;5.60;;;20.60;82.80;;;;;;4861472;29;20763;-73
2022/04/13 16:13:04;;;;;;;9.73;5.60;;;20.60;83.60;;;;;;4861647;29;20302;-72
2022/04/13 16:15:33;;;;;;;11.47;5.47;;;20.50;83.80;;;;;;4862138;29;20211;-74
2022/04/13 16:18:03;;;;;;;10.03;5.30;;;20.50;84.90;;;;;;4861445;29;20685;-75
2022/04/13 16:20:33;;;;;;;10.73;5.23;;;20.50;84.80;;;;;;4862180;29;20222;-77
2022/04/13 16:23:02;;;;;;;12.20;5.53;;;20.50;84.80;;;;;;4861750;29;20215;-77
2022/04/13 16:25:31;;;;;;;7.67;5.20;;;20.50;84.90;;;;;;4861582;29;20347;-77
2022/04/13 16:27:59;;;;;;;11.43;5.40;;;20.50;84.40;;;;;;4861477;29;20288;-73
2022/04/13 16:30:27;;;;;;;8.80;5.03;;;20.40;84.40;;;;;;4861587;29;20223;-78
2022/04/13 16:32:59;;;;;;;9.57;5.53;;;20.30;84.00;;;;;;4861401;29;20265;-77
2022/04/13 16:35:29;;;;;;;11.67;5.50;;;20.30;83.40;;;;;;4861586;29;20631;-76
2022/04/13 16:37:58;;;;;;;8.67;5.40;;;20.20;83.20;;;;;;4861015;29;20238;-77
2022/04/13 16:40:46;;;;;;;8.83;5.37;;;20.00;83.30;;;;;;4861899;29;20242;-77
2022/04/13 16:43:35;;;;;;;8.90;5.17;;;20.00;85.90;;;;;;4860616;29;20218;-76
2022/04/13 16:46:03;;;;;;;7.67;4.97;;;20.00;85.50;;;;;;4861226;29;20764;-76
2022/04/13 16:48:31;;;;;;;7.33;4.87;;;19.90;86.10;;;;;;4861445;29;20231;-76
2022/04/13 16:51:01;;;;;;;8.53;5.07;;;19.90;87.60;;;;;;4873231;29;20630;-73
2022/04/13 16:53:31;;;;;;;9.00;5.40;;;19.80;87.50;;;;;;4860985;29;20309;-74
2022/04/13 16:55:59;;;;;;;8.43;4.70;;;19.80;88.50;;;;;;4860491;29;20269;-76
2022/04/13 16:58:27;;;;;;;10.53;5.83;;;19.70;89.00;;;;;;4868130;29;20267;-75
2022/04/13 17:00:55;;;;;;;6.67;4.93;;;19.60;89.60;;;;;;4857949;29;20259;-75
2022/04/13 17:03:23;;;;;;;8.73;5.60;;;19.70;90.00;;;;;;4845460;29;20254;-77
2022/04/13 17:05:52;;;;;;;9.37;5.30;;;19.60;90.30;;;;;;4861037;29;20230;-77
2022/04/13 17:08:22;;;;;;;8.90;5.30;;;19.50;90.20;;;;;;4857471;29;20219;-75